Terminal Aerodrome Forecast
Issued by NWS Sioux Falls, SD

Home | Current Version | Previous Version | Graphics & Text | Print | Product List | Glossary Off
Versions: 1 2 3 4 5 6 7 8 9 10 11 12 13 14

000
FTUS43 KFSD 181700
TAFSUX
TAF
KSUX 181729Z 1818/1918 17019G27KT P6SM FEW200
     FM190200 16016G22KT P6SM FEW050
     FM191300 18017G25KT P6SM SCT040 BKN200=

USA.gov is the U.S. government's official web portal to all federal, state and local government web resources and services.